createdAt,value
2018-07-28T00:01:38.535Z,65.88
2018-07-28T00:04:07.998Z,66.83
2018-07-28T00:06:37.231Z,66.30
2018-07-28T00:09:10.016Z,66.82
2018-07-28T00:11:39.623Z,66.42
2018-07-28T00:14:09.250Z,67.69
2018-07-28T00:16:38.543Z,68.16
2018-07-28T00:19:07.871Z,68.00
2018-07-28T00:21:37.182Z,67.60
2018-07-28T00:24:06.528Z,68.32
2018-07-28T00:26:35.854Z,68.06
2018-07-28T00:29:05.236Z,68.21
2018-07-28T00:31:34.535Z,67.83
2018-07-28T00:34:03.810Z,68.41
2018-07-28T00:36:33.154Z,68.83
2018-07-28T00:39:02.422Z,69.62
2018-07-28T00:41:31.762Z,68.00
2018-07-28T00:44:00.781Z,68.76
2018-07-28T00:46:29.921Z,69.44
2018-07-28T00:48:59.250Z,69.17
2018-07-28T00:51:28.544Z,69.36
2018-07-28T00:53:57.841Z,69.68
2018-07-28T00:56:27.272Z,69.48
2018-07-28T00:58:56.754Z,69.72
2018-07-28T01:01:26.109Z,70.69
2018-07-28T01:03:55.494Z,70.04
2018-07-28T01:06:24.797Z,69.97
2018-07-28T01:08:54.121Z,69.87
2018-07-28T01:11:23.452Z,69.81
2018-07-28T01:13:52.995Z,69.54
2018-07-28T01:16:22.280Z,69.74
2018-07-28T01:18:51.622Z,69.49
2018-07-28T01:21:20.945Z,69.04
2018-07-28T01:23:50.276Z,67.95
2018-07-28T01:26:19.577Z,67.86
2018-07-28T01:28:53.018Z,67.79
2018-07-28T01:31:22.383Z,68.11
2018-07-28T01:33:51.717Z,68.08
2018-07-28T01:36:21.225Z,67.90
2018-07-28T01:38:50.578Z,67.33
2018-07-28T01:41:20.208Z,67.52
2018-07-28T01:43:49.594Z,67.12
2018-07-28T01:46:19.064Z,66.80
2018-07-28T01:48:48.395Z,67.66
2018-07-28T01:51:17.725Z,68.07
2018-07-28T01:53:47.059Z,67.94
2018-07-28T01:56:16.352Z,67.95
2018-07-28T01:58:45.656Z,68.52
2018-07-28T02:01:15.025Z,67.24
2018-07-28T02:03:44.351Z,66.21
2018-07-28T02:06:13.688Z,65.79
2018-07-28T02:08:43.046Z,65.08
2018-07-28T02:11:12.388Z,65.05
2018-07-28T02:13:42.125Z,65.02
2018-07-28T02:16:12.133Z,65.56
2018-07-28T02:18:41.481Z,64.93
2018-07-28T02:21:10.826Z,65.39
2018-07-28T02:23:40.173Z,66.11
2018-07-28T02:26:09.480Z,66.33
2018-07-28T02:28:38.930Z,66.80
2018-07-28T02:31:08.249Z,67.85
2018-07-28T02:33:37.528Z,67.73
2018-07-28T02:36:07.084Z,67.83
2018-07-28T02:38:36.383Z,68.05
2018-07-28T02:41:05.689Z,68.37
2018-07-28T02:43:35.003Z,68.88
2018-07-28T02:46:04.315Z,69.33
2018-07-28T02:48:33.657Z,70.37
2018-07-28T02:51:02.999Z,69.69
2018-07-28T02:53:32.311Z,69.13
2018-07-28T02:56:01.621Z,67.58
2018-07-28T02:58:30.940Z,67.57
2018-07-28T03:01:00.369Z,68.29
2018-07-28T03:03:29.714Z,68.50
2018-07-28T03:05:59.006Z,69.91
2018-07-28T03:08:29.062Z,69.63
2018-07-28T03:10:58.394Z,70.43
2018-07-28T03:13:27.731Z,70.82
2018-07-28T03:15:57.069Z,70.88
2018-07-28T03:18:26.470Z,72.14
2018-07-28T03:20:56.049Z,72.61
2018-07-28T03:23:25.349Z,71.47
2018-07-28T03:25:54.708Z,70.15
2018-07-28T03:28:24.101Z,69.93
2018-07-28T03:30:53.378Z,69.04
2018-07-28T03:33:22.777Z,69.44
2018-07-28T03:35:52.101Z,69.62
2018-07-28T03:38:21.476Z,69.83
2018-07-28T03:40:50.802Z,69.91
2018-07-28T03:43:20.231Z,69.42
2018-07-28T03:45:49.281Z,70.10
2018-07-28T03:48:18.635Z,71.33
2018-07-28T03:50:48.023Z,71.66
2018-07-28T03:53:17.285Z,72.13
2018-07-28T03:55:46.569Z,71.23
2018-07-28T03:58:15.862Z,70.90
2018-07-28T04:00:45.147Z,69.10
2018-07-28T04:03:14.396Z,67.05
2018-07-28T04:05:43.731Z,67.05
2018-07-28T04:08:12.975Z,65.09
2018-07-28T04:10:42.290Z,64.90
2018-07-28T04:13:11.559Z,66.44
2018-07-28T04:15:40.854Z,67.34
2018-07-28T04:18:10.138Z,67.54
2018-07-28T04:20:39.393Z,70.67
2018-07-28T04:23:08.629Z,69.09
2018-07-28T04:25:37.906Z,70.84
2018-07-28T04:28:07.170Z,69.76
2018-07-28T04:30:36.505Z,69.86
2018-07-28T04:33:06.395Z,68.77
2018-07-28T04:35:35.656Z,68.81
2018-07-28T04:38:04.913Z,68.98
2018-07-28T04:40:34.198Z,69.67
2018-07-28T04:43:03.449Z,69.70
2018-07-28T04:45:32.704Z,68.20
2018-07-28T04:48:01.953Z,68.26
2018-07-28T04:50:31.185Z,67.99
2018-07-28T04:53:00.401Z,67.64
2018-07-28T04:55:29.518Z,67.21
2018-07-28T04:57:58.894Z,66.28
2018-07-28T05:00:28.165Z,66.33
2018-07-28T05:02:57.455Z,66.45
2018-07-28T05:05:26.781Z,65.26
2018-07-28T05:07:56.083Z,64.95
2018-07-28T05:10:25.341Z,63.99
2018-07-28T05:12:54.665Z,62.87
2018-07-28T05:15:23.916Z,60.13
2018-07-28T05:17:53.227Z,57.27
2018-07-28T05:20:22.536Z,55.71
2018-07-28T05:22:51.778Z,55.30
2018-07-28T05:25:21.084Z,55.39
2018-07-28T05:27:50.363Z,54.87
2018-07-28T05:30:19.635Z,56.68
2018-07-28T05:32:48.992Z,57.71
2018-07-28T05:35:18.280Z,58.45
2018-07-28T05:37:47.492Z,60.78
2018-07-28T05:40:16.537Z,61.90
2018-07-28T05:42:45.797Z,61.11
2018-07-28T05:45:15.082Z,59.74
2018-07-28T05:47:44.386Z,58.85
2018-07-28T05:50:13.727Z,58.58
2018-07-28T05:52:42.947Z,56.40
2018-07-28T05:55:12.287Z,56.25
2018-07-28T05:57:41.693Z,55.45
2018-07-28T06:00:10.945Z,54.92
2018-07-28T06:02:40.357Z,53.99
2018-07-28T06:05:09.730Z,53.48
2018-07-28T06:07:39.036Z,52.01
2018-07-28T06:10:08.443Z,51.05
2018-07-28T06:12:37.754Z,49.99
2018-07-28T06:15:07.360Z,52.29
2018-07-28T06:17:36.777Z,50.59
2018-07-28T06:20:07.826Z,50.64
2018-07-28T06:22:37.679Z,49.95
2018-07-28T06:25:08.332Z,47.84
2018-07-28T06:27:37.682Z,48.59
2018-07-28T06:30:08.524Z,47.35
2018-07-28T06:32:37.987Z,48.49
2018-07-28T06:35:07.397Z,49.37
2018-07-28T06:37:37.290Z,48.82
2018-07-28T06:40:07.461Z,49.83
2018-07-28T06:42:36.802Z,51.25
2018-07-28T06:45:06.742Z,50.92
2018-07-28T06:47:36.089Z,52.04
2018-07-28T06:50:05.526Z,51.66
2018-07-28T06:52:34.898Z,52.50
2018-07-28T06:55:04.226Z,50.39
2018-07-28T06:57:33.328Z,52.12
2018-07-28T07:00:02.699Z,51.41
2018-07-28T07:02:31.992Z,52.52
2018-07-28T07:05:01.275Z,51.49
2018-07-28T07:07:30.634Z,53.69
2018-07-28T07:10:00.016Z,52.21
2018-07-28T07:12:29.457Z,51.20
2018-07-28T07:14:58.970Z,50.38
2018-07-28T07:17:28.330Z,50.28
2018-07-28T07:19:57.659Z,50.40
2018-07-28T07:22:27.002Z,51.57
2018-07-28T07:24:56.319Z,52.28
2018-07-28T07:27:25.672Z,52.36
2018-07-28T07:29:54.971Z,52.58
2018-07-28T07:32:24.532Z,52.55
2018-07-28T07:34:53.842Z,52.90
2018-07-28T07:37:23.273Z,51.10
2018-07-28T07:39:52.624Z,51.11
2018-07-28T07:42:22.017Z,50.44
2018-07-28T07:44:51.371Z,50.28
2018-07-28T07:47:20.829Z,49.47
2018-07-28T07:49:50.257Z,49.29
2018-07-28T07:52:19.624Z,48.40
2018-07-28T07:54:48.950Z,50.77
2018-07-28T07:57:18.305Z,51.72
2018-07-28T07:59:47.646Z,50.42
2018-07-28T08:02:16.942Z,51.79
2018-07-28T08:04:46.297Z,52.54
2018-07-28T08:07:15.542Z,53.88
2018-07-28T08:09:44.889Z,53.19
2018-07-28T08:12:14.201Z,54.90
2018-07-28T08:14:43.507Z,53.89
2018-07-28T08:17:12.809Z,53.61
2018-07-28T08:19:42.443Z,55.54
2018-07-28T08:22:11.511Z,53.70
2018-07-28T08:24:40.809Z,54.18
2018-07-28T08:27:10.090Z,57.42
2018-07-28T08:29:39.407Z,59.83
2018-07-28T08:32:08.662Z,59.59
2018-07-28T08:34:38.243Z,58.61
2018-07-28T08:37:07.522Z,57.81
2018-07-28T08:39:36.831Z,56.90
2018-07-28T08:42:06.155Z,55.35
2018-07-28T08:44:35.521Z,55.24
2018-07-28T08:47:04.842Z,55.75
2018-07-28T08:49:34.145Z,54.30
2018-07-28T08:52:03.481Z,55.47
2018-07-28T08:54:32.971Z,55.08
2018-07-28T08:57:02.479Z,54.35
2018-07-28T08:59:31.795Z,54.12
2018-07-28T09:02:01.113Z,54.46
2018-07-28T09:04:31.201Z,54.66
2018-07-28T09:07:00.577Z,54.06
2018-07-28T09:09:30.497Z,54.62
2018-07-28T09:11:59.797Z,54.44
2018-07-28T09:14:30.880Z,52.39
2018-07-28T09:17:00.158Z,51.79
2018-07-28T09:19:30.104Z,52.17
2018-07-28T09:21:59.441Z,50.20
2018-07-28T09:24:29.014Z,48.87
2018-07-28T09:26:58.320Z,52.50
2018-07-28T09:29:27.588Z,51.88
2018-07-28T09:31:57.025Z,50.51
2018-07-28T09:34:26.418Z,48.87
2018-07-28T09:36:55.736Z,47.48
2018-07-28T09:39:24.962Z,48.02
2018-07-28T09:41:54.603Z,47.87
2018-07-28T09:44:23.870Z,48.39
2018-07-28T09:46:53.281Z,48.78
2018-07-28T09:49:22.541Z,48.98
2018-07-28T09:51:51.811Z,49.47
2018-07-28T09:54:21.098Z,49.26
2018-07-28T09:56:50.374Z,49.28
2018-07-28T09:59:19.417Z,50.20
2018-07-28T10:01:48.806Z,49.62
2018-07-28T10:04:18.185Z,48.52
2018-07-28T10:06:47.563Z,48.14
2018-07-28T10:09:16.930Z,48.85
2018-07-28T10:11:46.310Z,48.44
2018-07-28T10:14:15.779Z,49.16
2018-07-28T10:16:45.131Z,47.95
2018-07-28T10:19:14.527Z,47.78
2018-07-28T10:22:46.882Z,46.91
2018-07-28T10:25:16.229Z,46.61
2018-07-28T10:27:45.639Z,46.52
2018-07-28T10:30:15.090Z,44.99
2018-07-28T10:32:44.453Z,44.66
2018-07-28T10:35:13.855Z,44.05
2018-07-28T10:37:43.221Z,42.04
2018-07-28T10:40:12.645Z,43.19
2018-07-28T10:42:41.938Z,42.74
2018-07-28T10:45:11.353Z,42.32
2018-07-28T10:47:45.920Z,42.15
2018-07-28T10:50:15.293Z,40.66
2018-07-28T10:52:44.798Z,40.97
2018-07-28T10:55:14.126Z,39.93
2018-07-28T10:57:43.513Z,38.91
2018-07-28T11:00:13.023Z,39.98
2018-07-28T11:02:42.587Z,39.99
2018-07-28T11:05:12.166Z,38.88
2018-07-28T11:07:42.122Z,39.17
2018-07-28T11:10:11.623Z,39.43
2018-07-28T11:12:41.293Z,39.41
2018-07-28T11:15:11.003Z,39.80
2018-07-28T11:17:40.532Z,40.33
2018-07-28T11:20:11.027Z,40.88
2018-07-28T11:22:40.898Z,39.43
2018-07-28T11:25:10.300Z,40.14
2018-07-28T11:27:39.760Z,38.40
2018-07-28T11:30:09.679Z,39.51
2018-07-28T11:32:56.035Z,39.68
2018-07-28T11:35:42.483Z,39.44
2018-07-28T11:38:33.674Z,37.13
2018-07-28T11:41:19.858Z,37.46
2018-07-28T11:44:06.194Z,38.44
2018-07-28T11:46:35.555Z,38.64
2018-07-28T11:49:04.946Z,39.57
2018-07-28T11:51:34.093Z,39.79
2018-07-28T11:54:03.466Z,39.17
2018-07-28T11:56:32.866Z,39.34
2018-07-28T11:59:02.256Z,38.77
2018-07-28T12:01:31.541Z,37.76
2018-07-28T12:04:00.931Z,37.25
2018-07-28T12:06:30.281Z,37.63
2018-07-28T12:08:59.662Z,36.84
2018-07-28T12:11:28.978Z,38.69
2018-07-28T12:13:58.319Z,37.48
2018-07-28T12:16:27.670Z,37.03
2018-07-28T12:18:57.030Z,37.73
2018-07-28T12:21:26.359Z,36.66
2018-07-28T12:23:56.760Z,36.89
2018-07-28T12:26:26.581Z,35.70
2018-07-28T12:28:56.018Z,36.57
2018-07-28T12:31:25.462Z,36.96
2018-07-28T12:33:54.768Z,37.93
2018-07-28T12:36:24.082Z,38.80
2018-07-28T12:38:53.515Z,39.47
2018-07-28T12:41:22.973Z,40.36
2018-07-28T12:43:52.191Z,46.03
2018-07-28T12:46:21.217Z,48.91
2018-07-28T12:48:50.587Z,52.57
2018-07-28T12:51:19.921Z,63.49
2018-07-28T12:53:49.393Z,72.85
2018-07-28T12:56:19.389Z,76.96
2018-07-28T12:58:49.005Z,75.96
2018-07-28T13:01:18.050Z,76.82
2018-07-28T13:03:47.467Z,79.02
2018-07-28T13:06:16.907Z,82.66
2018-07-28T13:08:46.207Z,83.83
2018-07-28T13:11:15.548Z,84.52
2018-07-28T13:13:44.784Z,80.40
2018-07-28T13:16:14.107Z,84.48
2018-07-28T13:18:43.366Z,87.16
2018-07-28T13:21:12.678Z,88.56
2018-07-28T13:23:41.974Z,83.49
2018-07-28T13:26:11.227Z,87.91
2018-07-28T13:28:40.650Z,89.09
2018-07-28T13:31:10.095Z,83.24
2018-07-28T13:33:39.446Z,82.39
2018-07-28T13:36:08.781Z,79.34
2018-07-28T13:38:38.143Z,82.97
2018-07-28T13:41:07.400Z,81.38
2018-07-28T13:43:36.698Z,83.88
2018-07-28T13:46:06.043Z,84.22
2018-07-28T13:48:35.283Z,78.79
2018-07-28T13:51:04.735Z,77.59
2018-07-28T13:53:34.022Z,74.67
2018-07-28T13:56:03.402Z,83.95
2018-07-28T13:58:32.752Z,83.96
2018-07-28T14:01:02.033Z,81.92
2018-07-28T14:03:31.320Z,83.46
2018-07-28T14:06:00.679Z,83.21
2018-07-28T14:08:30.009Z,81.57
2018-07-28T14:10:59.342Z,73.19
2018-07-28T14:13:28.719Z,75.66
2018-07-28T14:15:58.069Z,77.20
2018-07-28T14:18:27.438Z,78.44
2018-07-28T14:20:56.985Z,77.20
2018-07-28T14:23:26.240Z,79.54
2018-07-28T14:25:55.537Z,79.36
2018-07-28T14:28:24.781Z,71.42
2018-07-28T14:30:54.459Z,69.82
2018-07-28T14:33:23.947Z,69.05
2018-07-28T14:35:53.662Z,61.24
2018-07-28T14:38:22.965Z,59.90
2018-07-28T14:40:52.317Z,67.52
2018-07-28T14:43:21.661Z,63.49
2018-07-28T14:45:50.993Z,61.35
2018-07-28T14:48:20.271Z,61.75
2018-07-28T14:50:49.553Z,65.22
2018-07-28T14:53:18.827Z,60.66
2018-07-28T14:55:48.123Z,63.96
2018-07-28T14:58:17.412Z,57.61
2018-07-28T15:00:46.713Z,58.41
2018-07-28T15:03:16.043Z,53.95
2018-07-28T15:05:45.362Z,55.39
2018-07-28T15:08:14.618Z,54.04
2018-07-28T15:10:43.958Z,52.57
2018-07-28T15:13:13.279Z,52.45
2018-07-28T15:15:42.659Z,51.13
2018-07-28T15:18:11.925Z,52.50
2018-07-28T15:20:41.192Z,50.23
2018-07-28T15:23:10.532Z,50.74
2018-07-28T15:25:39.867Z,52.11
2018-07-28T15:28:09.140Z,51.05
2018-07-28T15:30:38.463Z,49.83
2018-07-28T15:33:07.760Z,50.00
2018-07-28T15:35:37.056Z,51.55
2018-07-28T15:38:06.378Z,51.39
2018-07-28T15:40:35.606Z,51.70
2018-07-28T15:43:05.177Z,51.98
2018-07-28T15:45:34.538Z,51.93
2018-07-28T15:48:04.200Z,52.02
2018-07-28T15:50:33.486Z,51.50
2018-07-28T15:53:02.887Z,53.94
2018-07-28T15:55:32.137Z,53.05
2018-07-28T15:58:01.451Z,52.88
2018-07-28T16:00:30.718Z,53.46
2018-07-28T16:02:59.761Z,53.52
2018-07-28T16:05:28.990Z,54.57
2018-07-28T16:07:58.270Z,54.20
2018-07-28T16:10:27.517Z,53.65
2018-07-28T16:12:56.803Z,54.68
2018-07-28T16:15:26.110Z,55.52
2018-07-28T16:17:55.424Z,55.37
2018-07-28T16:20:24.765Z,56.53
2018-07-28T16:22:54.145Z,56.94
2018-07-28T16:25:23.464Z,56.48
2018-07-28T16:27:52.807Z,56.01
2018-07-28T16:30:22.023Z,56.17
2018-07-28T16:32:51.295Z,57.53
2018-07-28T16:35:20.590Z,58.05
2018-07-28T16:37:49.865Z,57.57
2018-07-28T16:40:19.132Z,57.49
2018-07-28T16:42:48.166Z,57.12
2018-07-28T16:45:17.440Z,57.48
2018-07-28T16:47:46.799Z,58.33
2018-07-28T16:50:16.011Z,58.86
2018-07-28T16:52:45.215Z,58.17
2018-07-28T16:55:14.625Z,58.62
2018-07-28T16:57:43.898Z,56.81
2018-07-28T17:00:13.274Z,56.93
2018-07-28T17:02:42.662Z,55.30
2018-07-28T17:05:12.150Z,55.30
2018-07-28T17:07:41.482Z,55.01
2018-07-28T17:10:10.622Z,54.92
2018-07-28T17:12:39.932Z,56.05
2018-07-28T17:15:10.314Z,56.01
2018-07-28T17:17:39.634Z,55.55
2018-07-28T17:20:09.222Z,55.75
2018-07-28T17:22:38.648Z,56.51
2018-07-28T17:25:07.898Z,56.85
2018-07-28T17:27:37.250Z,56.49
2018-07-28T17:30:06.753Z,57.26
2018-07-28T17:32:36.152Z,56.85
2018-07-28T17:35:05.610Z,56.85
2018-07-28T17:37:34.930Z,57.14
2018-07-28T17:40:04.326Z,57.30
2018-07-28T17:42:33.779Z,57.90
2018-07-28T17:45:03.099Z,58.47
2018-07-28T17:47:32.374Z,58.90
2018-07-28T17:50:01.707Z,58.99
2018-07-28T17:52:31.037Z,59.90
2018-07-28T17:55:00.403Z,59.50
2018-07-28T17:57:29.732Z,58.73
2018-07-28T17:59:59.171Z,59.65
2018-07-28T18:02:28.213Z,58.79
2018-07-28T18:04:57.573Z,58.42
2018-07-28T18:07:26.887Z,59.84
2018-07-28T18:09:56.246Z,58.79
2018-07-28T18:12:25.511Z,59.69
2018-07-28T18:14:54.857Z,59.48
2018-07-28T18:17:24.127Z,61.35
2018-07-28T18:19:53.433Z,60.52
2018-07-28T18:22:23.134Z,61.01
2018-07-28T18:24:52.553Z,60.99
2018-07-28T18:27:22.046Z,61.46
2018-07-28T18:29:51.627Z,61.64
2018-07-28T18:32:20.966Z,62.87
2018-07-28T18:34:50.636Z,62.17
2018-07-28T18:37:20.042Z,62.24
2018-07-28T18:39:49.323Z,63.60
2018-07-28T18:42:18.630Z,63.49
2018-07-28T18:44:47.975Z,62.94
2018-07-28T18:47:17.421Z,63.17
2018-07-28T18:49:49.206Z,62.87
2018-07-28T18:52:18.486Z,63.27
2018-07-28T18:54:48.556Z,63.64
2018-07-28T18:57:17.915Z,63.96
2018-07-28T18:59:47.231Z,63.79
2018-07-28T19:02:16.699Z,64.01
2018-07-28T19:04:46.253Z,63.91
2018-07-28T19:07:18.584Z,64.00
2018-07-28T19:09:52.218Z,64.11
2018-07-28T19:12:26.958Z,64.96
2018-07-28T19:14:56.326Z,64.68
2018-07-28T19:17:29.714Z,64.96
2018-07-28T19:19:59.034Z,66.48
2018-07-28T19:22:33.679Z,66.04
2018-07-28T19:25:03.006Z,65.55
2018-07-28T19:27:32.408Z,66.65
2018-07-28T19:30:01.697Z,66.84
2018-07-28T19:32:31.026Z,67.58
2018-07-28T19:35:00.252Z,68.23
2018-07-28T19:37:29.857Z,67.44
2018-07-28T19:39:59.247Z,67.21
2018-07-28T19:42:33.862Z,67.19
2018-07-28T19:45:03.203Z,68.12
2018-07-28T19:47:32.564Z,67.99
2018-07-28T19:50:01.874Z,68.17
2018-07-28T19:52:31.267Z,68.52
2018-07-28T19:55:02.058Z,68.67
2018-07-28T19:57:33.369Z,68.50
2018-07-28T20:00:05.138Z,68.96
2018-07-28T20:03:34.557Z,69.78
2018-07-28T20:09:45.267Z,69.61
2018-07-28T20:12:15.560Z,69.49
2018-07-28T20:14:48.017Z,70.20
2018-07-28T20:17:18.705Z,70.30
2018-07-28T20:19:50.075Z,70.33
2018-07-28T20:22:21.186Z,70.87
2018-07-28T20:24:52.877Z,70.99
2018-07-28T20:27:24.173Z,71.01
2018-07-28T20:29:56.114Z,70.85
2018-07-28T20:32:27.387Z,71.57
2018-07-28T20:34:58.565Z,72.19
2018-07-28T20:37:29.029Z,72.38
2018-07-28T20:39:59.611Z,71.45
2018-07-28T20:42:30.050Z,71.55
2018-07-28T20:45:00.358Z,71.84
2018-07-28T20:47:30.817Z,71.88
2018-07-28T20:50:01.585Z,71.79
2018-07-28T20:52:32.741Z,72.33
2018-07-28T20:57:35.531Z,72.13
2018-07-28T21:00:09.026Z,72.52
2018-07-28T21:02:39.731Z,72.83
2018-07-28T21:05:11.572Z,72.17
2018-07-28T21:07:42.584Z,72.32
2018-07-28T21:10:14.022Z,71.76
2018-07-28T21:12:45.923Z,71.60
2018-07-28T21:15:15.332Z,71.61
2018-07-28T21:17:44.678Z,72.09
2018-07-28T21:20:14.045Z,72.10
2018-07-28T21:22:43.461Z,71.87
2018-07-28T21:25:12.834Z,71.91
2018-07-28T21:27:42.138Z,71.33
2018-07-28T21:30:11.509Z,71.87
2018-07-28T21:32:41.034Z,70.50
2018-07-28T21:35:10.443Z,70.92
2018-07-28T21:37:39.838Z,70.83
2018-07-28T21:40:10.098Z,71.36
2018-07-28T21:42:39.467Z,71.11
2018-07-28T21:45:08.788Z,72.01
2018-07-28T21:47:38.895Z,71.80
2018-07-28T21:50:08.350Z,71.97
2018-07-28T21:52:37.673Z,72.20
2018-07-28T21:55:07.139Z,70.86
2018-07-28T21:57:36.414Z,69.82
2018-07-28T22:00:08.711Z,69.78
2018-07-28T22:02:38.006Z,68.80
2018-07-28T22:05:07.512Z,66.75
2018-07-28T22:07:36.858Z,66.60
2018-07-28T22:10:06.252Z,65.90
2018-07-28T22:12:36.221Z,65.90
2018-07-28T22:15:05.959Z,65.04
2018-07-28T22:17:36.096Z,65.72
2018-07-28T22:20:05.939Z,64.60
2018-07-28T22:22:35.849Z,63.94
2018-07-28T22:25:05.156Z,63.73
2018-07-28T22:27:34.590Z,63.01
2018-07-28T22:30:03.949Z,63.57
2018-07-28T22:32:33.319Z,63.07
2018-07-28T22:35:02.681Z,63.27
2018-07-28T22:37:31.953Z,63.12
2018-07-28T22:40:01.461Z,63.24
2018-07-28T22:42:45.511Z,63.63
2018-07-28T22:45:14.791Z,63.90
2018-07-28T22:47:44.316Z,64.36
2018-07-28T22:50:13.612Z,64.44
2018-07-28T22:52:43.247Z,63.10
2018-07-28T22:55:12.630Z,62.97
2018-07-28T22:57:41.986Z,63.45
2018-07-28T23:00:11.280Z,63.59
2018-07-28T23:02:40.876Z,63.32
2018-07-28T23:05:10.166Z,63.30
2018-07-28T23:07:39.664Z,63.99
2018-07-28T23:10:08.992Z,64.44
2018-07-28T23:12:38.410Z,64.30
2018-07-28T23:15:07.801Z,64.48
2018-07-28T23:17:37.046Z,64.83
2018-07-28T23:20:06.461Z,65.14
2018-07-28T23:22:35.866Z,65.28
2018-07-28T23:25:06.001Z,66.12
2018-07-28T23:27:35.089Z,67.02
2018-07-28T23:30:07.242Z,67.62
2018-07-28T23:32:36.867Z,68.51
2018-07-28T23:35:06.480Z,69.20
2018-07-28T23:37:35.847Z,68.91
2018-07-28T23:40:05.562Z,69.94
2018-07-28T23:42:34.962Z,69.85
2018-07-28T23:45:04.707Z,70.55
2018-07-28T23:47:33.987Z,70.56
2018-07-28T23:50:03.226Z,70.18
2018-07-28T23:52:32.495Z,70.46
2018-07-28T23:55:01.759Z,70.12
2018-07-28T23:57:31.058Z,71.11
